Time;durP1;ratioP1;P1;durP2;ratioP2;P2;SDS_P1;SDS_P2;PMS_P1;PMS_P2;Temp;Humidity;BMP_temperature;BMP_pressure;BME280_temperature;BME280_humidity;BME280_pressure;Samples;Min_cycle;Max_cycle;Signal;HPM_P1;HPM_P2
2022/10/19 00:01:50;;;;;;;;;;;19.80;99.90;;;;;;5053373;28;19919;-25
2022/10/19 00:04:16;;;;;;;;;;;19.80;99.90;;;;;;5052960;28;20438;-26
2022/10/19 00:06:41;;;;;;;;;;;19.70;99.90;;;;;;5052955;28;19931;-25
2022/10/19 00:09:12;;;;;;;;;;;19.70;99.90;;;;;;5053019;28;19951;-25
2022/10/19 00:11:38;;;;;;;;;;;19.70;99.90;;;;;;5053051;28;20003;-25
2022/10/19 00:14:04;;;;;;;;;;;19.70;99.90;;;;;;5052849;28;19963;-25
2022/10/19 00:16:31;;;;;;;;;;;19.70;99.90;;;;;;5052764;28;20320;-25
2022/10/19 00:18:58;;;;;;;;;;;19.70;99.90;;;;;;5052787;28;19913;-26
2022/10/19 00:21:24;;;;;;;;;;;19.70;99.90;;;;;;5052727;28;19908;-26
2022/10/19 00:23:49;;;;;;;;;;;19.70;99.90;;;;;;5052369;28;19936;-26
2022/10/19 00:26:15;;;;;;;;;;;19.70;99.90;;;;;;5052543;28;20004;-25
2022/10/19 00:28:41;;;;;;;;;;;19.70;99.90;;;;;;5052396;28;20713;-25
2022/10/19 00:31:08;;;;;;;;;;;19.70;99.90;;;;;;5051626;28;19994;-26
2022/10/19 00:33:34;;;;;;;;;;;19.70;99.90;;;;;;5052460;28;19908;-26
2022/10/19 00:36:00;;;;;;;;;;;19.70;99.90;;;;;;5052405;28;19996;-25
2022/10/19 00:38:25;;;;;;;;;;;19.70;99.90;;;;;;5052412;28;19909;-25
2022/10/19 00:40:51;;;;;;;;;;;19.70;99.90;;;;;;5052322;28;19913;-25
2022/10/19 00:43:18;;;;;;;;;;;19.70;99.90;;;;;;5052403;28;20003;-25
2022/10/19 00:45:44;;;;;;;;;;;19.70;99.90;;;;;;5052436;28;19916;-25
2022/10/19 00:48:11;;;;;;;;;;;19.60;99.90;;;;;;5052266;28;19909;-26
2022/10/19 00:50:36;;;;;;;;;;;19.60;99.90;;;;;;5052255;28;19940;-26
2022/10/19 00:53:02;;;;;;;;;;;19.60;99.90;;;;;;5052288;28;20386;-25
2022/10/19 00:55:27;;;;;;;;;;;19.60;99.90;;;;;;5052343;28;19912;-25
2022/10/19 00:57:53;;;;;;;;;;;19.60;99.90;;;;;;5052151;28;19913;-26
2022/10/19 01:00:19;;;;;;;;;;;19.60;99.90;;;;;;5052223;28;20021;-26
2022/10/19 01:02:45;;;;;;;;;;;19.60;99.90;;;;;;5052107;28;19909;-26
2022/10/19 01:05:11;;;;;;;;;;;19.60;99.90;;;;;;5051955;28;19909;-25
2022/10/19 01:07:36;;;;;;;;;;;19.60;99.90;;;;;;5051785;28;20012;-25
2022/10/19 01:10:03;;;;;;;;;;;19.60;99.90;;;;;;5051893;28;20031;-26
2022/10/19 01:12:40;;;;;;;;;;;19.60;99.90;;;;;;5051945;28;20366;-26
2022/10/19 01:15:12;;;;;;;;;;;19.50;99.90;;;;;;5050671;28;19955;-26
2022/10/19 01:17:56;;;;;;;;;;;19.50;99.90;;;;;;5051951;28;19909;-25
2022/10/19 01:20:40;;;;;;;;;;;19.50;99.90;;;;;;5051840;28;19962;-25
2022/10/19 01:23:17;;;;;;;;;;;19.50;99.90;;;;;;5051698;28;20396;-25
2022/10/19 01:26:01;;;;;;;;;;;19.50;99.90;;;;;;5052093;28;20001;-25
2022/10/19 01:28:37;;;;;;;;;;;19.50;99.90;;;;;;5052263;28;19943;-26
2022/10/19 01:31:22;;;;;;;;;;;19.50;99.90;;;;;;5051451;28;19913;-26
2022/10/19 01:33:53;;;;;;;;;;;19.50;99.90;;;;;;5051163;28;19955;-26
2022/10/19 01:36:19;;;;;;;;;;;19.50;99.90;;;;;;5051364;28;19908;-26
2022/10/19 01:38:55;;;;;;;;;;;19.50;99.90;;;;;;5051349;28;19920;-26
2022/10/19 01:41:37;;;;;;;;;;;19.50;99.90;;;;;;5051120;28;19909;-26
2022/10/19 01:44:02;;;;;;;;;;;19.50;99.90;;;;;;5051152;28;19934;-26
2022/10/19 01:46:33;;;;;;;;;;;19.50;99.90;;;;;;5051255;28;20003;-25
2022/10/19 01:49:06;;;;;;;;;;;19.50;99.90;;;;;;5051206;28;19909;-26
2022/10/19 01:51:34;;;;;;;;;;;19.40;99.90;;;;;;5051220;28;19936;-25
2022/10/19 01:54:02;;;;;;;;;;;19.50;99.90;;;;;;5051318;28;19916;-27
2022/10/19 01:56:29;;;;;;;;;;;19.40;99.90;;;;;;5051280;28;19909;-25
2022/10/19 01:58:56;;;;;;;;;;;19.40;99.90;;;;;;5051622;28;20294;-25
2022/10/19 02:01:23;;;;;;;;;;;19.40;99.90;;;;;;5051177;28;19909;-26
2022/10/19 02:03:50;;;;;;;;;;;19.50;99.90;;;;;;5050977;28;19909;-25
2022/10/19 02:06:16;;;;;;;;;;;19.50;99.90;;;;;;5051142;28;20060;-25
2022/10/19 02:08:49;;;;;;;;;;;19.50;99.90;;;;;;5051490;28;20390;-26
2022/10/19 02:11:15;;;;;;;;;;;19.40;99.90;;;;;;5051078;28;19912;-27
2022/10/19 02:13:41;;;;;;;;;;;19.40;99.90;;;;;;5050936;28;19909;-27
2022/10/19 02:16:10;;;;;;;;;;;19.40;99.90;;;;;;5051000;28;20362;-26
2022/10/19 02:18:39;;;;;;;;;;;19.40;99.90;;;;;;5051268;28;20417;-25
2022/10/19 02:21:04;;;;;;;;;;;19.40;99.90;;;;;;5051264;28;19908;-26
2022/10/19 02:23:30;;;;;;;;;;;19.40;99.90;;;;;;5050843;28;19915;-25
2022/10/19 02:25:56;;;;;;;;;;;19.40;99.90;;;;;;5050865;28;19913;-26
2022/10/19 02:28:22;;;;;;;;;;;19.40;99.90;;;;;;5051091;28;19939;-26
2022/10/19 02:30:47;;;;;;;;;;;19.40;99.90;;;;;;5050888;28;19917;-26
2022/10/19 02:33:13;;;;;;;;;;;19.40;99.90;;;;;;5050737;28;20378;-26
2022/10/19 02:35:39;;;;;;;;;;;19.40;99.90;;;;;;5050973;28;20370;-26
2022/10/19 02:38:06;;;;;;;;;;;19.40;99.90;;;;;;5050929;28;19909;-25
2022/10/19 02:40:35;;;;;;;;;;;19.40;99.90;;;;;;5050898;28;20000;-26
2022/10/19 02:43:06;;;;;;;;;;;19.40;99.90;;;;;;5050663;28;20496;-25
2022/10/19 02:45:35;;;;;;;;;;;19.40;99.90;;;;;;5051300;28;19969;-27
2022/10/19 02:48:05;;;;;;;;;;;19.40;99.90;;;;;;5050572;28;19983;-27
2022/10/19 02:50:31;;;;;;;;;;;19.40;99.90;;;;;;5050823;28;19913;-26
2022/10/19 02:52:57;;;;;;;;;;;19.40;99.90;;;;;;5050696;28;20389;-26
2022/10/19 02:55:22;;;;;;;;;;;19.40;99.90;;;;;;5054472;28;20003;-27
2022/10/19 02:57:48;;;;;;;;;;;19.40;99.90;;;;;;5054173;28;19909;-25
2022/10/19 03:00:13;;;;;;;;;;;19.40;99.90;;;;;;5054108;28;19932;-25
2022/10/19 03:02:39;;;;;;;;;;;19.40;99.90;;;;;;5053869;28;19912;-26
2022/10/19 03:05:04;;;;;;;;;;;19.40;99.90;;;;;;5054111;28;19951;-26
2022/10/19 03:07:30;;;;;;;;;;;19.40;99.90;;;;;;5054009;28;19971;-26
2022/10/19 03:09:55;;;;;;;;;;;19.40;99.90;;;;;;5054129;28;20353;-25
2022/10/19 03:12:21;;;;;;;;;;;19.40;99.90;;;;;;5054108;28;19919;-25
2022/10/19 03:14:46;;;;;;;;;;;19.40;99.90;;;;;;5054020;28;19912;-26
2022/10/19 03:17:12;;;;;;;;;;;19.40;99.90;;;;;;5053822;28;19909;-25
2022/10/19 03:19:37;;;;;;;;;;;19.30;99.90;;;;;;5053989;28;19913;-25
2022/10/19 03:22:03;;;;;;;;;;;19.30;99.90;;;;;;5053818;28;19909;-26
2022/10/19 03:24:29;;;;;;;;;;;19.30;99.90;;;;;;5053577;28;19912;-27
2022/10/19 03:26:55;;;;;;;;;;;19.30;99.90;;;;;;5053575;28;19963;-26
2022/10/19 03:29:20;;;;;;;;;;;19.30;99.90;;;;;;5053512;28;19909;-25
2022/10/19 03:31:46;;;;;;;;;;;19.30;99.90;;;;;;5053584;28;19920;-26
2022/10/19 03:34:11;;;;;;;;;;;19.30;99.90;;;;;;5053573;28;20321;-25
2022/10/19 03:36:37;;;;;;;;;;;19.30;99.90;;;;;;5053592;28;19924;-26
2022/10/19 03:39:05;;;;;;;;;;;19.30;99.90;;;;;;5053676;28;20211;-26
2022/10/19 03:41:32;;;;;;;;;;;19.30;99.90;;;;;;5053641;28;19988;-26
2022/10/19 03:43:57;;;;;;;;;;;19.30;99.90;;;;;;5053119;28;19993;-26
2022/10/19 03:46:23;;;;;;;;;;;19.30;99.90;;;;;;5053342;28;20370;-26
2022/10/19 03:48:48;;;;;;;;;;;19.30;99.90;;;;;;5053354;28;19909;-27
2022/10/19 03:51:15;;;;;;;;;;;19.30;99.90;;;;;;5053213;28;20289;-25
2022/10/19 03:53:41;;;;;;;;;;;19.30;99.90;;;;;;5053449;28;20259;-27
2022/10/19 03:56:09;;;;;;;;;;;19.30;99.90;;;;;;5053100;28;19916;-26
2022/10/19 03:58:36;;;;;;;;;;;19.30;99.90;;;;;;5053095;28;19909;-26
2022/10/19 04:01:05;;;;;;;;;;;19.30;99.90;;;;;;5053005;28;19909;-25
2022/10/19 04:03:30;;;;;;;;;;;19.30;99.90;;;;;;5052835;28;19909;-26
2022/10/19 04:06:09;;;;;;;;;;;19.30;99.90;;;;;;5052811;28;20255;-26
2022/10/19 04:08:35;;;;;;;;;;;19.30;99.90;;;;;;5052810;28;19915;-26
2022/10/19 04:11:01;;;;;;;;;;;19.20;99.90;;;;;;5052623;28;19913;-25
2022/10/19 04:13:27;;;;;;;;;;;19.20;99.90;;;;;;5052532;28;19909;-27
2022/10/19 04:15:52;;;;;;;;;;;19.20;99.90;;;;;;5052741;28;19908;-27
2022/10/19 04:18:17;;;;;;;;;;;19.20;99.90;;;;;;5052659;28;19909;-26
2022/10/19 04:20:43;;;;;;;;;;;19.30;99.90;;;;;;5053065;28;19909;-25
2022/10/19 04:23:08;;;;;;;;;;;19.20;99.90;;;;;;5052400;28;19955;-27
2022/10/19 04:25:34;;;;;;;;;;;19.20;99.90;;;;;;5052452;28;19916;-26
2022/10/19 04:28:00;;;;;;;;;;;19.20;99.90;;;;;;5052461;28;20384;-25
2022/10/19 04:30:25;;;;;;;;;;;19.20;99.90;;;;;;5051272;28;19916;-27
2022/10/19 04:32:51;;;;;;;;;;;19.20;99.90;;;;;;5052393;28;19915;-25
2022/10/19 04:35:16;;;;;;;;;;;19.20;99.90;;;;;;5051213;28;20006;-26
2022/10/19 04:37:42;;;;;;;;;;;19.20;99.90;;;;;;5052309;28;20006;-26
2022/10/19 04:40:07;;;;;;;;;;;19.20;99.90;;;;;;5052311;28;19909;-27
2022/10/19 04:42:33;;;;;;;;;;;19.20;99.90;;;;;;5052156;28;19962;-25
2022/10/19 04:44:58;;;;;;;;;;;19.20;99.90;;;;;;5052040;28;19960;-26
2022/10/19 04:47:24;;;;;;;;;;;19.20;99.90;;;;;;5052221;28;20228;-27
2022/10/19 04:49:49;;;;;;;;;;;19.20;99.90;;;;;;5052014;28;19924;-26
2022/10/19 04:52:15;;;;;;;;;;;19.20;99.90;;;;;;5051985;28;20491;-26
2022/10/19 04:54:40;;;;;;;;;;;19.20;99.90;;;;;;5051728;28;20007;-27
2022/10/19 04:57:06;;;;;;;;;;;19.20;99.90;;;;;;5051852;28;20344;-26
2022/10/19 04:59:31;;;;;;;;;;;19.20;99.90;;;;;;5052175;28;19913;-27
2022/10/19 05:01:57;;;;;;;;;;;19.10;99.90;;;;;;5051857;28;19913;-25
2022/10/19 05:04:22;;;;;;;;;;;19.20;99.90;;;;;;5051645;28;20011;-27
2022/10/19 05:06:48;;;;;;;;;;;19.10;99.90;;;;;;5051671;28;19909;-25
2022/10/19 05:09:13;;;;;;;;;;;19.20;99.90;;;;;;5051508;28;19931;-26
2022/10/19 05:11:39;;;;;;;;;;;19.20;99.90;;;;;;5051572;28;20009;-28
2022/10/19 05:14:04;;;;;;;;;;;19.10;99.90;;;;;;5051459;28;19915;-25
2022/10/19 05:16:30;;;;;;;;;;;19.10;99.90;;;;;;5051013;28;19909;-26
2022/10/19 05:18:57;;;;;;;;;;;19.10;99.90;;;;;;5051578;28;19909;-26
2022/10/19 05:21:23;;;;;;;;;;;19.10;99.90;;;;;;5051971;28;19913;-26
2022/10/19 05:23:52;;;;;;;;;;;19.20;99.90;;;;;;5049852;28;20022;-25
2022/10/19 05:26:19;;;;;;;;;;;19.10;99.90;;;;;;5051378;28;20011;-26
2022/10/19 05:28:55;;;;;;;;;;;19.10;99.90;;;;;;5051408;28;19909;-25
2022/10/19 05:31:21;;;;;;;;;;;19.10;99.90;;;;;;5051433;28;19913;-26
2022/10/19 05:33:47;;;;;;;;;;;19.10;99.90;;;;;;5051275;28;20365;-26
2022/10/19 05:36:15;;;;;;;;;;;19.10;99.90;;;;;;5051758;28;19956;-26
2022/10/19 05:38:42;;;;;;;;;;;19.10;99.90;;;;;;5050063;28;20400;-27
2022/10/19 05:41:07;;;;;;;;;;;19.10;99.90;;;;;;5051382;28;19919;-25
2022/10/19 05:43:33;;;;;;;;;;;19.10;99.90;;;;;;5051119;28;20015;-26
2022/10/19 05:46:02;;;;;;;;;;;19.10;99.90;;;;;;5051222;28;19913;-27
2022/10/19 05:48:31;;;;;;;;;;;19.10;99.90;;;;;;5051250;28;20263;-25
2022/10/19 05:50:57;;;;;;;;;;;19.10;99.90;;;;;;5051139;28;19970;-26
2022/10/19 05:53:22;;;;;;;;;;;19.00;99.90;;;;;;5051454;28;19955;-26
2022/10/19 05:55:48;;;;;;;;;;;19.10;99.90;;;;;;5051111;28;19916;-27
2022/10/19 05:58:13;;;;;;;;;;;19.10;99.90;;;;;;5051033;28;19972;-25
2022/10/19 06:00:39;;;;;;;;;;;19.10;99.90;;;;;;5051417;28;19912;-27
2022/10/19 06:03:04;;;;;;;;;;;19.10;99.90;;;;;;5050889;28;19913;-26
2022/10/19 06:05:30;;;;;;;;;;;19.10;99.90;;;;;;5051073;28;19935;-26
2022/10/19 06:07:55;;;;;;;;;;;19.00;99.90;;;;;;5051055;28;19916;-26
2022/10/19 06:10:21;;;;;;;;;;;19.10;99.90;;;;;;5050951;28;19913;-25
2022/10/19 06:12:46;;;;;;;;;;;19.10;99.90;;;;;;5050744;28;20384;-25
2022/10/19 06:15:12;;;;;;;;;;;19.00;99.90;;;;;;5049615;28;19970;-27
2022/10/19 06:17:37;;;;;;;;;;;19.00;99.90;;;;;;5050883;28;19971;-27
2022/10/19 06:20:03;;;;;;;;;;;19.00;99.90;;;;;;5050911;28;19916;-25
2022/10/19 06:22:29;;;;;;;;;;;19.00;99.90;;;;;;5051088;28;19913;-26
2022/10/19 06:24:55;;;;;;;;;;;19.00;99.90;;;;;;5051237;28;20283;-25
2022/10/19 06:27:20;;;;;;;;;;;19.00;99.90;;;;;;5050666;28;19979;-27
2022/10/19 06:29:46;;;;;;;;;;;19.00;99.90;;;;;;5053865;28;19917;-26
2022/10/19 06:32:11;;;;;;;;;;;19.00;99.90;;;;;;5054735;28;19967;-25
2022/10/19 06:34:37;;;;;;;;;;;19.00;99.90;;;;;;5055026;28;19912;-25
2022/10/19 06:37:02;;;;;;;;;;;19.00;99.90;;;;;;5054447;28;19973;-25
2022/10/19 06:39:28;;;;;;;;;;;19.00;99.90;;;;;;5054483;28;19909;-26
2022/10/19 06:41:53;;;;;;;;;;;19.00;99.90;;;;;;5054416;28;19909;-26
2022/10/19 06:44:19;;;;;;;;;;;19.00;99.90;;;;;;5054252;28;19966;-27
2022/10/19 06:46:44;;;;;;;;;;;19.10;99.90;;;;;;5054374;28;19912;-27
2022/10/19 06:49:11;;;;;;;;;;;19.00;99.90;;;;;;5054731;28;20387;-26
2022/10/19 06:51:36;;;;;;;;;;;19.00;99.90;;;;;;5054141;28;19920;-27
2022/10/19 06:54:02;;;;;;;;;;;19.00;99.90;;;;;;5054193;28;20286;-26
2022/10/19 06:56:27;;;;;;;;;;;19.00;99.90;;;;;;5054281;28;19913;-26
2022/10/19 06:58:53;;;;;;;;;;;19.00;99.90;;;;;;5054176;28;20264;-26
2022/10/19 07:01:19;;;;;;;;;;;19.00;99.90;;;;;;5054059;28;19909;-26
2022/10/19 07:03:44;;;;;;;;;;;19.00;99.90;;;;;;5053926;28;19916;-26
2022/10/19 07:06:10;;;;;;;;;;;19.00;99.90;;;;;;5053840;28;19913;-27
2022/10/19 07:08:37;;;;;;;;;;;19.00;99.90;;;;;;5053923;28;19909;-25
2022/10/19 07:11:04;;;;;;;;;;;19.00;99.90;;;;;;5053803;28;19919;-27
2022/10/19 07:13:30;;;;;;;;;;;18.90;99.90;;;;;;5053757;28;19909;-27
2022/10/19 07:15:57;;;;;;;;;;;18.90;99.90;;;;;;5053751;28;20375;-26
2022/10/19 07:18:22;;;;;;;;;;;18.90;99.90;;;;;;5053732;28;20394;-27
2022/10/19 07:20:57;;;;;;;;;;;18.90;99.90;;;;;;5054120;28;19955;-26
2022/10/19 07:23:24;;;;;;;;;;;18.90;99.90;;;;;;5053474;28;19916;-25
2022/10/19 07:25:51;;;;;;;;;;;18.90;99.90;;;;;;5053445;28;19913;-26
2022/10/19 07:28:17;;;;;;;;;;;18.90;99.90;;;;;;5125268;22;19924;-24
2022/10/19 07:30:42;;;;;;;;;;;18.90;99.90;;;;;;5114659;28;20276;-24
2022/10/19 07:33:08;;;;;;;;;;;18.90;99.90;;;;;;5114430;28;19931;-24
2022/10/19 07:35:33;;;;;;;;;;;18.90;99.90;;;;;;5114271;28;19908;-24
2022/10/19 07:37:59;;;;;;;;;;;18.90;99.90;;;;;;5114293;28;19908;-24
2022/10/19 07:40:24;;;;;;;;;;;18.80;99.90;;;;;;5113955;28;19968;-24
2022/10/19 07:42:49;;;;;;;;;;;18.80;99.90;;;;;;5114306;28;20362;-24
2022/10/19 07:45:15;;;;;;;;;;;18.80;99.90;;;;;;5113884;28;19919;-24
2022/10/19 07:47:40;;;;;;;;;;;18.80;99.90;;;;;;5113956;28;19916;-24
2022/10/19 07:50:06;;;;;;;;;;;18.80;99.90;;;;;;5114155;28;19918;-24
2022/10/19 07:52:32;;;;;;;;;;;18.80;99.90;;;;;;5095381;28;20283;-24
2022/10/19 07:54:59;;;;;;;;;;;18.80;99.90;;;;;;5113887;28;20312;-24
2022/10/19 07:57:25;;;;;;;;;;;18.80;99.90;;;;;;5113808;28;19908;-24
2022/10/19 07:59:50;;;;;;;;;;;18.80;99.90;;;;;;5113698;28;19999;-24
2022/10/19 08:02:16;;;;;;;;;;;18.80;99.90;;;;;;5095917;28;20436;-24
2022/10/19 08:04:42;;;;;;;;;;;18.80;99.90;;;;;;5113619;28;19912;-24
2022/10/19 08:07:07;;;;;;;;;;;18.80;99.90;;;;;;5113603;28;19930;-24
2022/10/19 08:09:33;;;;;;;;;;;18.80;99.90;;;;;;5113536;28;19908;-24
2022/10/19 08:11:58;;;;;;;;;;;18.80;99.90;;;;;;5113406;28;19915;-24
2022/10/19 08:14:25;;;;;;;;;;;18.80;99.90;;;;;;5113153;28;19908;-23
2022/10/19 08:16:50;;;;;;;;;;;18.80;99.90;;;;;;5113422;28;19964;-24
2022/10/19 08:19:16;;;;;;;;;;;18.80;99.90;;;;;;5095087;28;19998;-24
2022/10/19 08:21:43;;;;;;;;;;;18.80;99.90;;;;;;5113590;28;19908;-23
2022/10/19 08:24:09;;;;;;;;;;;18.80;99.90;;;;;;5113189;28;19915;-23
2022/10/19 08:26:39;;;;;;;;;;;18.80;99.90;;;;;;5113023;28;19915;-24
2022/10/19 08:29:06;;;;;;;;;;;18.80;99.90;;;;;;5113843;28;19915;-23
2022/10/19 08:31:31;;;;;;;;;;;18.80;99.90;;;;;;5114017;28;20147;-24
2022/10/19 08:33:57;;;;;;;;;;;18.80;99.90;;;;;;5094730;28;19914;-23
2022/10/19 08:36:23;;;;;;;;;;;18.80;99.90;;;;;;5113343;28;19912;-24
2022/10/19 08:38:49;;;;;;;;;;;18.80;99.90;;;;;;5113390;28;20312;-23
2022/10/19 08:41:24;;;;;;;;;;;18.80;99.90;;;;;;5113227;28;19915;-24
2022/10/19 08:43:52;;;;;;;;;;;18.70;99.90;;;;;;5112993;28;20262;-23
2022/10/19 08:46:38;;;;;;;;;;;18.70;99.90;;;;;;5114884;28;19914;-23
2022/10/19 08:49:03;;;;;;;;;;;18.80;99.90;;;;;;5072703;28;19931;-24
2022/10/19 08:51:35;;;;;;;;;;;18.70;99.90;;;;;;5112643;28;20367;-24
2022/10/19 08:54:04;;;;;;;;;;;18.70;99.90;;;;;;5094357;28;19912;-23
2022/10/19 08:56:32;;;;;;;;;;;18.70;99.90;;;;;;5094601;28;20317;-24
2022/10/19 08:59:07;;;;;;;;;;;18.70;99.90;;;;;;5094596;28;19950;-24
2022/10/19 09:01:36;;;;;;;;;;;18.70;99.90;;;;;;5112744;28;19961;-24
2022/10/19 09:04:08;;;;;;;;;;;18.70;99.90;;;;;;5112384;28;20432;-23
2022/10/19 09:06:56;;;;;;;;;;;18.70;99.90;;;;;;5113043;28;20253;-24
2022/10/19 09:09:22;;;;;;;;;;;18.70;99.90;;;;;;5112538;28;19912;-24
2022/10/19 09:11:49;;;;;;;;;;;18.70;99.90;;;;;;5112467;28;19918;-24
2022/10/19 09:14:18;;;;;;;;;;;18.70;99.90;;;;;;5094050;28;20030;-24
2022/10/19 09:16:45;;;;;;;;;;;18.70;99.90;;;;;;5112276;28;19911;-24
2022/10/19 09:19:24;;;;;;;;;;;18.70;99.90;;;;;;5112388;28;19911;-24
2022/10/19 09:21:53;;;;;;;;;;;18.70;99.90;;;;;;5112720;28;20387;-24
2022/10/19 09:24:27;;;;;;;;;;;18.70;99.90;;;;;;5112178;28;19908;-24
2022/10/19 09:26:54;;;;;;;;;;;18.70;99.90;;;;;;5112308;28;19951;-23
2022/10/19 09:29:23;;;;;;;;;;;18.70;99.90;;;;;;5112214;28;20351;-24
2022/10/19 09:31:52;;;;;;;;;;;18.70;99.90;;;;;;5112037;28;20007;-24
2022/10/19 09:34:20;;;;;;;;;;;18.60;99.90;;;;;;5093934;28;19995;-24
2022/10/19 09:36:50;;;;;;;;;;;18.70;99.90;;;;;;5112861;28;19915;-24
2022/10/19 09:39:16;;;;;;;;;;;18.70;99.90;;;;;;5113709;28;20273;-24
2022/10/19 09:41:55;;;;;;;;;;;18.70;99.90;;;;;;5113880;28;20336;-24
2022/10/19 09:44:24;;;;;;;;;;;18.70;99.90;;;;;;5112344;28;19920;-24
2022/10/19 09:46:56;;;;;;;;;;;18.70;99.90;;;;;;5111934;28;19977;-24
2022/10/19 09:49:41;;;;;;;;;;;18.60;99.90;;;;;;5112111;28;20284;-24
2022/10/19 09:52:25;;;;;;;;;;;18.70;99.90;;;;;;5111947;28;19959;-24
2022/10/19 09:54:58;;;;;;;;;;;18.60;99.90;;;;;;5111860;28;19912;-24
2022/10/19 09:57:24;;;;;;;;;;;18.60;99.90;;;;;;5111909;28;19908;-24
2022/10/19 09:59:51;;;;;;;;;;;18.60;99.90;;;;;;5111836;28;19963;-24
2022/10/19 10:02:18;;;;;;;;;;;18.60;99.90;;;;;;5113163;28;19908;-24
2022/10/19 10:04:45;;;;;;;;;;;18.60;99.90;;;;;;5115813;28;19907;-24
2022/10/19 10:07:15;;;;;;;;;;;18.60;99.90;;;;;;5115706;28;19911;-24
2022/10/19 10:09:41;;;;;;;;;;;18.60;99.90;;;;;;5115915;28;20283;-24
2022/10/19 10:12:07;;;;;;;;;;;18.60;99.90;;;;;;5115977;28;19970;-24
2022/10/19 10:14:38;;;;;;;;;;;18.60;99.90;;;;;;5116761;28;20006;-24
2022/10/19 10:17:20;;;;;;;;;;;18.70;99.90;;;;;;5115324;28;19912;-24
2022/10/19 10:19:58;;;;;;;;;;;18.70;99.90;;;;;;5115676;28;19908;-24
2022/10/19 10:22:25;;;;;;;;;;;18.60;99.90;;;;;;5115492;28;19934;-24
2022/10/19 10:24:52;;;;;;;;;;;18.60;99.90;;;;;;5115932;28;19912;-24
2022/10/19 10:27:28;;;;;;;;;;;18.60;99.90;;;;;;5097254;28;20208;-24
2022/10/19 10:29:54;;;;;;;;;;;18.70;99.90;;;;;;5115288;28;19943;-24
2022/10/19 10:32:20;;;;;;;;;;;18.60;99.90;;;;;;5115616;28;19999;-24
2022/10/19 10:34:47;;;;;;;;;;;18.60;99.90;;;;;;5115597;28;19960;-24
2022/10/19 10:37:20;;;;;;;;;;;18.70;99.90;;;;;;5115261;28;19908;-24
2022/10/19 10:39:49;;;;;;;;;;;18.60;99.90;;;;;;5115295;28;20353;-24
2022/10/19 10:42:17;;;;;;;;;;;18.60;99.90;;;;;;5115051;28;19969;-24
2022/10/19 10:44:46;;;;;;;;;;;18.60;99.90;;;;;;5114909;28;20317;-24
2022/10/19 10:47:13;;;;;;;;;;;18.60;99.90;;;;;;5115026;28;19908;-24
2022/10/19 10:49:41;;;;;;;;;;;18.60;99.90;;;;;;5115285;28;19908;-24
2022/10/19 10:52:09;;;;;;;;;;;18.60;99.90;;;;;;5115082;28;19908;-24
2022/10/19 10:54:35;;;;;;;;;;;18.60;99.90;;;;;;5114764;28;19908;-24
2022/10/19 10:57:04;;;;;;;;;;;18.60;99.90;;;;;;5114925;28;20392;-24
2022/10/19 10:59:32;;;;;;;;;;;18.60;99.90;;;;;;5114941;28;20405;-24
2022/10/19 11:02:01;;;;;;;;;;;18.60;99.90;;;;;;5114972;28;19915;-24
2022/10/19 11:04:37;;;;;;;;;;;18.60;99.90;;;;;;5114895;28;19916;-24
2022/10/19 11:07:26;;;;;;;;;;;18.60;99.90;;;;;;5096351;28;19908;-24
2022/10/19 11:09:55;;;;;;;;;;;18.60;99.90;;;;;;5103696;28;20368;-24
2022/10/19 11:12:42;;;;;;;;;;;18.60;99.90;;;;;;5114986;28;19919;-24
2022/10/19 11:15:11;;;;;;;;;;;18.60;99.90;;;;;;5113948;28;19908;-24
2022/10/19 11:17:38;;;;;;;;;;;18.60;99.90;;;;;;5114494;28;20379;-24
2022/10/19 11:20:04;;;;;;;;;;;18.60;99.90;;;;;;5114493;28;20010;-24
2022/10/19 11:22:34;;;;;;;;;;;18.60;99.90;;;;;;5114454;28;19929;-24
2022/10/19 11:25:05;;;;;;;;;;;18.60;99.90;;;;;;5114553;28;19935;-24
2022/10/19 11:27:37;;;;;;;;;;;18.60;99.90;;;;;;5095976;28;20007;-24
2022/10/19 11:30:22;;;;;;;;;;;18.60;99.90;;;;;;5114355;28;19943;-24
2022/10/19 11:32:51;;;;;;;;;;;18.60;99.90;;;;;;5114365;28;19919;-24
2022/10/19 11:35:35;;;;;;;;;;;18.60;99.90;;;;;;5114364;28;19915;-24
2022/10/19 11:38:07;;;;;;;;;;;18.60;99.90;;;;;;5114169;28;19918;-24
2022/10/19 11:40:37;;;;;;;;;;;18.60;99.90;;;;;;5114341;28;19915;-24
2022/10/19 11:43:22;;;;;;;;;;;18.60;99.90;;;;;;5114364;28;19911;-24
2022/10/19 11:46:06;;;;;;;;;;;18.60;99.90;;;;;;5114212;28;19915;-24
2022/10/19 11:48:41;;;;;;;;;;;18.60;99.90;;;;;;5113842;28;20446;-24
2022/10/19 11:51:10;;;;;;;;;;;18.60;99.90;;;;;;5113622;28;20369;-24
2022/10/19 11:53:41;;;;;;;;;;;18.60;99.90;;;;;;5113868;28;19907;-24
2022/10/19 11:56:09;;;;;;;;;;;18.60;99.90;;;;;;5095690;28;19908;-24
2022/10/19 11:58:39;;;;;;;;;;;18.60;99.90;;;;;;5113806;28;19988;-24
2022/10/19 12:01:24;;;;;;;;;;;18.60;99.90;;;;;;5114128;28;19916;-23
2022/10/19 12:03:50;;;;;;;;;;;18.60;99.90;;;;;;5081444;28;19919;-23
2022/10/19 12:06:21;;;;;;;;;;;18.60;99.90;;;;;;5113914;28;19907;-23
2022/10/19 12:08:56;;;;;;;;;;;18.60;99.90;;;;;;5113781;28;19953;-24
2022/10/19 12:11:26;;;;;;;;;;;18.60;99.90;;;;;;5113571;28;19915;-23
2022/10/19 12:13:57;;;;;;;;;;;18.60;99.90;;;;;;5113120;28;19911;-24
2022/10/19 12:16:27;;;;;;;;;;;18.60;99.90;;;;;;5113266;28;19908;-24
2022/10/19 12:18:54;;;;;;;;;;;18.60;99.90;;;;;;5113274;28;19973;-24
2022/10/19 12:21:34;;;;;;;;;;;18.60;99.90;;;;;;5113843;28;19908;-24
2022/10/19 12:24:02;;;;;;;;;;;18.60;99.90;;;;;;5113090;28;19935;-24
2022/10/19 12:26:29;;;;;;;;;;;18.60;99.90;;;;;;5112943;28;20369;-24
2022/10/19 12:28:56;;;;;;;;;;;18.60;99.90;;;;;;5113155;28;19912;-24
2022/10/19 12:31:23;;;;;;;;;;;18.60;99.90;;;;;;5113194;28;19938;-24
2022/10/19 12:33:55;;;;;;;;;;;18.70;99.90;;;;;;5112766;28;19915;-24
2022/10/19 12:36:24;;;;;;;;;;;18.60;99.90;;;;;;5112933;28;19930;-24
2022/10/19 12:39:03;;;;;;;;;;;18.70;99.90;;;;;;5113000;28;19908;-24
2022/10/19 12:41:34;;;;;;;;;;;18.60;99.90;;;;;;5112952;28;19946;-24
2022/10/19 12:44:02;;;;;;;;;;;18.60;99.90;;;;;;5112939;28;19931;-24
2022/10/19 12:46:37;;;;;;;;;;;18.60;99.90;;;;;;5112947;28;20525;-24
2022/10/19 12:49:21;;;;;;;;;;;18.60;99.90;;;;;;5112739;28;19935;-24
2022/10/19 12:51:46;;;;;;;;;;;18.60;99.90;;;;;;5112585;28;19957;-24
2022/10/19 12:54:12;;;;;;;;;;;18.70;99.90;;;;;;5112438;28;19911;-24
2022/10/19 12:56:48;;;;;;;;;;;18.60;99.90;;;;;;5112575;28;19912;-24
2022/10/19 12:59:21;;;;;;;;;;;18.60;99.90;;;;;;5112403;28;19908;-24
2022/10/19 13:01:47;;;;;;;;;;;18.60;99.90;;;;;;5112712;28;20165;-24
2022/10/19 13:04:14;;;;;;;;;;;18.70;99.90;;;;;;5112242;28;20386;-24
2022/10/19 13:06:43;;;;;;;;;;;18.70;99.90;;;;;;5112381;28;19907;-24
2022/10/19 13:09:21;;;;;;;;;;;18.70;99.90;;;;;;5112543;28;19919;-24
2022/10/19 13:12:05;;;;;;;;;;;18.60;99.90;;;;;;5112493;28;19919;-24
2022/10/19 13:14:39;;;;;;;;;;;18.60;99.90;;;;;;5112068;28;19952;-24
2022/10/19 13:17:06;;;;;;;;;;;18.70;99.90;;;;;;5112422;28;19947;-24
2022/10/19 13:19:31;;;;;;;;;;;18.70;99.90;;;;;;5112320;28;19912;-24
2022/10/19 13:21:57;;;;;;;;;;;18.60;99.90;;;;;;5112093;28;19923;-24
2022/10/19 13:24:22;;;;;;;;;;;18.70;99.90;;;;;;5111991;28;19954;-24
2022/10/19 13:27:03;;;;;;;;;;;18.70;99.90;;;;;;5112655;28;19912;-24
2022/10/19 13:29:38;;;;;;;;;;;18.60;99.90;;;;;;5112468;28;19908;-24
2022/10/19 13:32:23;;;;;;;;;;;18.60;99.90;;;;;;5113207;28;19919;-23
2022/10/19 13:34:48;;;;;;;;;;;18.60;99.90;;;;;;5113301;28;20014;-24
2022/10/19 13:37:15;;;;;;;;;;;18.60;99.90;;;;;;5111732;28;19951;-24
2022/10/19 13:39:40;;;;;;;;;;;18.60;99.90;;;;;;5111988;28;19919;-24
2022/10/19 13:42:21;;;;;;;;;;;18.60;99.90;;;;;;5112144;28;19908;-23
2022/10/19 13:44:47;;;;;;;;;;;18.70;99.90;;;;;;5093809;28;19908;-24
2022/10/19 13:47:18;;;;;;;;;;;18.60;99.90;;;;;;5112061;28;19908;-23
2022/10/19 13:50:02;;;;;;;;;;;18.60;99.90;;;;;;5112057;28;19907;-24
2022/10/19 13:52:42;;;;;;;;;;;18.60;99.90;;;;;;5111704;28;19908;-23
2022/10/19 13:55:16;;;;;;;;;;;18.70;99.90;;;;;;5111950;28;19908;-24
2022/10/19 13:57:42;;;;;;;;;;;18.70;99.90;;;;;;5111878;28;20291;-24
2022/10/19 14:00:21;;;;;;;;;;;18.60;99.90;;;;;;5111919;28;20371;-24
2022/10/19 14:03:05;;;;;;;;;;;18.70;99.90;;;;;;5112035;28;20368;-24
2022/10/19 14:05:30;;;;;;;;;;;18.70;99.90;;;;;;5112308;28;20376;-23
2022/10/19 14:08:02;;;;;;;;;;;18.60;99.90;;;;;;5111828;28;19951;-24
2022/10/19 14:10:31;;;;;;;;;;;18.60;99.90;;;;;;5111783;28;20003;-24
2022/10/19 14:12:57;;;;;;;;;;;18.60;99.90;;;;;;5111459;28;19912;-24
2022/10/19 14:15:26;;;;;;;;;;;18.70;99.90;;;;;;5112105;28;19915;-23
2022/10/19 14:17:51;;;;;;;;;;;18.60;99.90;;;;;;5112664;28;19935;-24
2022/10/19 14:20:23;;;;;;;;;;;18.60;99.90;;;;;;5112038;28;19954;-24
2022/10/19 14:22:48;;;;;;;;;;;18.60;99.90;;;;;;5111672;28;19960;-24
2022/10/19 14:25:22;;;;;;;;;;;18.60;99.90;;;;;;5111641;28;19915;-24